Time;durP1;ratioP1;P1;durP2;ratioP2;P2;SDS_P1;SDS_P2;PMS_P1;PMS_P2;Temp;Humidity;BMP_temperature;BMP_pressure;BME280_temperature;BME280_humidity;BME280_pressure;Samples;Min_cycle;Max_cycle;Signal;HPM_P1;HPM_P2
2021/12/17 00:00:59;;;;;;;8.50;5.45;;;;;;;3.84;100.00;99606.88;1732696;81;21027;-64
2021/12/17 00:03:33;;;;;;;9.88;5.20;;;;;;;3.82;100.00;99612.20;1732763;82;21499;-64
2021/12/17 00:06:04;;;;;;;10.10;5.50;;;;;;;3.82;100.00;99603.61;1731687;82;21574;-65
2021/12/17 00:08:21;;;;;;;8.63;5.22;;;;;;;3.85;100.00;99607.70;1730188;83;20949;-64
2021/12/17 00:10:50;;;;;;;7.58;4.97;;;;;;;3.90;100.00;99603.77;1732726;83;21074;-65
2021/12/17 00:13:17;;;;;;;9.98;5.50;;;;;;;3.90;100.00;99611.33;1732821;81;21063;-64
2021/12/17 00:15:44;;;;;;;10.28;6.35;;;;;;;3.84;100.00;99608.74;1732808;83;21059;-63
2021/12/17 00:18:18;;;;;;;11.95;6.65;;;;;;;3.83;100.00;99604.40;1732908;81;21554;-63
2021/12/17 00:40:23;;;;;;;11.12;6.45;;;;;;;3.80;100.00;99597.61;1801301;79;22959;-64
2021/12/17 00:51:09;;;;;;;4.10;2.00;;;;;;;3.69;100.00;99608.34;1752937;82;21704;-63
2021/12/17 00:53:06;;;;;;;3.95;1.82;;;;;;;3.66;100.00;99610.98;1748401;82;21570;-63
2021/12/17 00:55:35;;;;;;;3.80;1.70;;;;;;;3.59;100.00;99610.78;1752830;81;21066;-64
2021/12/17 00:58:01;;;;;;;3.83;2.17;;;;;;;3.59;100.00;99600.84;1753025;82;21094;-64
2021/12/17 01:00:28;;;;;;;5.17;2.20;;;;;;;3.63;100.00;99597.98;1753052;82;21106;-64
2021/12/17 01:02:55;;;;;;;5.62;2.35;;;;;;;3.58;100.00;99598.39;1752789;82;21126;-64
2021/12/17 01:05:26;;;;;;;2.80;1.72;;;;;;;3.57;100.00;99598.09;1753146;82;21102;-64
2021/12/17 01:07:54;;;;;;;4.03;1.80;;;;;;;3.62;100.00;99583.40;1753083;82;21576;-64
2021/12/17 01:10:32;;;;;;;4.00;2.00;;;;;;;3.61;100.00;99595.23;1753114;82;21066;-63
2021/12/17 01:13:01;;;;;;;5.50;1.85;;;;;;;3.59;100.00;99593.28;1748574;82;21102;-64
2021/12/17 01:15:32;;;;;;;4.12;2.22;;;;;;;3.54;100.00;99583.75;1751494;82;21039;-63
2021/12/17 01:18:08;;;;;;;5.03;1.95;;;;;;;3.57;100.00;99587.32;1738825;82;21142;-64
2021/12/17 01:21:08;;;;;;;5.37;2.05;;;;;;;3.61;100.00;99585.30;1752981;82;21038;-64
2021/12/17 01:42:37;;;;;;;5.30;3.10;;;;;;;3.46;100.00;99569.57;1753137;82;21016;-64
2021/12/17 01:45:05;;;;;;;11.03;5.00;;;;;;;3.50;100.00;99560.52;1753197;82;21077;-64
2021/12/17 01:47:31;;;;;;;5.55;3.60;;;;;;;3.44;100.00;99566.27;1753276;82;21046;-64
2021/12/17 02:01:12;;;;;;;4.50;1.90;;;;;;;3.48;100.00;99552.66;1813639;79;23063;-64
2021/12/17 02:03:39;;;;;;;5.42;1.82;;;;;;;3.45;100.00;99547.73;1752859;82;21494;-64
2021/12/17 02:06:06;;;;;;;3.98;1.67;;;;;;;3.39;100.00;99555.39;1752798;82;21062;-64
2021/12/17 02:08:35;;;;;;;5.25;2.10;;;;;;;3.42;100.00;99558.14;1752848;82;21050;-64
2021/12/17 02:11:57;;;;;;;5.15;2.12;;;;;;;3.51;100.00;99558.09;1752992;82;21566;-64
2021/12/17 02:31:16;;;;;;;4.33;1.15;;;;;;;3.49;100.00;99548.09;1753124;82;21050;-64
2021/12/17 02:32:40;;;;;;;3.35;1.02;;;;;;;3.42;100.00;99541.99;1745358;82;21083;-64
2021/12/17 02:35:33;;;;;;;3.45;1.20;;;;;;;3.44;100.00;99547.95;1753108;82;21043;-63
2021/12/17 02:37:54;;;;;;;5.20;1.77;;;;;;;3.53;100.00;99549.80;1751847;82;21027;-63
2021/12/17 02:46:29;;;;;;;6.78;3.90;;;;;;;3.46;100.00;99541.31;1753090;82;21075;-63
2021/12/17 02:48:55;;;;;;;6.45;2.80;;;;;;;3.40;100.00;99538.17;1753185;82;21023;-63
2021/12/17 02:51:22;;;;;;;10.25;2.77;;;;;;;3.43;100.00;99543.64;1753012;82;21520;-63
2021/12/17 02:53:50;;;;;;;5.95;2.55;;;;;;;3.48;100.00;99540.55;1752909;82;21067;-63
2021/12/17 02:56:17;;;;;;;7.37;2.30;;;;;;;3.46;100.00;99537.80;1723536;82;21079;-63
2021/12/17 02:58:43;;;;;;;6.42;2.00;;;;;;;3.40;100.00;99536.83;1753308;82;21530;-63
2021/12/17 03:01:12;;;;;;;5.72;1.72;;;;;;;3.43;100.00;99536.39;1708576;81;21051;-62
2021/12/17 03:03:39;;;;;;;5.10;1.82;;;;;;;3.44;100.00;99539.88;1761892;81;21474;-63
2021/12/17 03:06:06;;;;;;;5.17;1.85;;;;;;;3.41;100.00;99539.00;1761492;81;21041;-63
2021/12/17 03:08:34;;;;;;;4.83;1.77;;;;;;;3.45;100.00;99534.28;1761740;81;20983;-63
2021/12/17 03:11:01;;;;;;;6.00;1.60;;;;;;;3.45;100.00;99536.97;1761468;81;21002;-63
2021/12/17 03:13:31;;;;;;;6.33;1.57;;;;;;;3.41;100.00;99534.96;1760800;81;21023;-62
2021/12/17 03:16:03;;;;;;;4.22;1.52;;;;;;;3.43;100.00;99528.84;1760992;81;21072;-64
2021/12/17 03:23:55;;;;;;;2.98;1.35;;;;;;;3.43;100.00;99531.02;1761080;81;21526;-65
2021/12/17 03:26:26;;;;;;;3.55;1.50;;;;;;;3.42;100.00;99523.98;1760814;81;21063;-65
2021/12/17 03:28:58;;;;;;;4.67;1.40;;;;;;;3.40;100.00;99525.27;1760863;81;21054;-65
2021/12/17 03:31:26;;;;;;;5.55;1.47;;;;;;;3.41;100.00;99527.72;1760635;81;21604;-65
2021/12/17 03:34:01;;;;;;;3.90;1.50;;;;;;;3.44;100.00;99516.48;1760778;81;20963;-65
2021/12/17 03:36:23;;;;;;;4.67;1.70;;;;;;;3.37;100.00;99517.64;1760410;81;21062;-63
2021/12/17 03:38:50;;;;;;;5.67;1.45;;;;;;;3.35;100.00;99521.09;1761126;81;21050;-63
2021/12/17 03:43:48;;;;;;;4.70;1.47;;;;;;;3.29;100.00;99509.39;1760574;81;21051;-64
2021/12/17 03:46:16;;;;;;;5.00;1.75;;;;;;;3.31;100.00;99509.14;1760970;81;21529;-64
2021/12/17 03:48:43;;;;;;;5.72;1.82;;;;;;;3.36;100.00;99518.70;1761284;81;20987;-64
2021/12/17 03:51:16;;;;;;;4.00;1.60;;;;;;;3.32;100.00;99518.87;1733143;81;21012;-63
2021/12/17 03:53:41;;;;;;;5.62;1.67;;;;;;;3.24;100.00;99515.16;1760454;81;21011;-63
2021/12/17 03:56:08;;;;;;;3.58;1.60;;;;;;;3.26;100.00;99517.11;1731777;81;21502;-63
2021/12/17 03:58:35;;;;;;;6.08;1.87;;;;;;;3.25;100.00;99513.59;1761238;81;21057;-63
2021/12/17 04:01:03;;;;;;;6.40;2.02;;;;;;;3.23;100.00;99508.95;1755250;81;21071;-63
2021/12/17 04:03:30;;;;;;;5.92;1.75;;;;;;;3.24;100.00;99513.28;1753339;82;21050;-63
2021/12/17 04:05:58;;;;;;;4.35;1.75;;;;;;;3.27;100.00;99511.48;1752513;82;21051;-63
2021/12/17 04:08:39;;;;;;;6.80;2.15;;;;;;;3.20;100.00;99501.86;1749458;82;20999;-63
2021/12/17 04:11:16;;;;;;;7.97;1.90;;;;;;;3.17;100.00;99505.84;1749385;82;21593;-63
2021/12/17 04:13:38;;;;;;;4.80;1.60;;;;;;;3.18;100.00;99496.73;1752294;82;21056;-64
2021/12/17 04:16:09;;;;;;;5.08;1.65;;;;;;;3.20;100.00;99501.86;1752971;82;21126;-63
2021/12/17 04:18:40;;;;;;;3.67;1.27;;;;;;;3.16;100.00;99497.98;1753278;82;20995;-63
2021/12/17 04:21:13;;;;;;;4.12;1.17;;;;;;;3.11;100.00;99497.34;1725582;82;20991;-64
2021/12/17 04:23:37;;;;;;;6.58;1.60;;;;;;;3.15;100.00;99501.75;1752718;81;21079;-64
2021/12/17 04:26:04;;;;;;;5.03;1.75;;;;;;;3.17;100.00;99509.88;1753061;82;21579;-64
2021/12/17 04:28:30;;;;;;;;;;;;;;;3.17;100.00;99496.42;1755582;82;21098;-63
2021/12/17 04:30:58;;;;;;;4.58;1.52;;;;;;;3.12;100.00;99500.31;1753350;82;20114;-63
2021/12/17 04:33:25;;;;;;;5.35;1.67;;;;;;;3.12;100.00;99502.21;1753116;82;21099;-63
2021/12/17 04:35:51;;;;;;;4.75;1.20;;;;;;;3.13;100.00;99499.27;1753269;82;21042;-64
2021/12/17 04:38:20;;;;;;;5.22;1.30;;;;;;;3.11;100.00;99498.70;1753473;82;21014;-63
2021/12/17 04:40:48;;;;;;;5.37;1.45;;;;;;;3.09;100.00;99491.36;1753291;82;21046;-64
2021/12/17 04:45:51;;;;;;;6.55;1.30;;;;;;;3.17;100.00;99498.29;1753143;82;21031;-63
2021/12/17 04:59:15;;;;;;;6.03;1.60;;;;;;;3.03;100.00;99489.59;1753378;82;21027;-63
2021/12/17 05:01:42;;;;;;;5.20;1.60;;;;;;;3.07;100.00;99491.30;1740929;81;21099;-64
2021/12/17 05:04:09;;;;;;;6.20;1.90;;;;;;;3.09;100.00;99480.61;1739395;82;21499;-63
2021/12/17 05:06:35;;;;;;;4.72;1.80;;;;;;;3.05;100.00;99486.69;1739365;82;21115;-64
2021/12/17 05:09:11;;;;;;;7.08;1.72;;;;;;;3.05;100.00;99479.97;1739352;82;20995;-64
2021/12/17 05:19:50;;;;;;;6.78;2.25;;;;;;;3.02;100.00;99490.64;1739196;82;21008;-64
2021/12/17 05:22:13;;;;;;;9.30;2.90;;;;;;;3.05;100.00;99479.97;1738537;82;21078;-64
2021/12/17 05:24:40;;;;;;;7.17;2.05;;;;;;;3.08;100.00;99475.47;1739068;82;21015;-63
2021/12/17 05:27:08;;;;;;;7.58;2.20;;;;;;;3.03;100.00;99482.05;1738968;82;21040;-63
2021/12/17 05:29:36;;;;;;;6.40;2.00;;;;;;;2.98;100.00;99485.41;1738826;82;21019;-64
2021/12/17 05:32:04;;;;;;;8.73;3.00;;;;;;;3.00;100.00;99477.44;1739397;82;21115;-63
2021/12/17 05:37:28;;;;;;;7.75;2.75;;;;;;;3.05;100.00;99478.08;1819123;79;22971;-64
2021/12/17 05:39:55;;;;;;;10.65;3.45;;;;;;;2.95;100.00;99482.67;1792910;80;21007;-64
2021/12/17 05:49:44;;;;;;;6.70;2.50;;;;;;;2.94;100.00;99456.82;1801296;79;22934;-64
2021/12/17 05:52:11;;;;;;;8.93;3.00;;;;;;;2.87;100.00;99471.44;1756665;80;21039;-63
2021/12/17 05:54:37;;;;;;;7.53;2.15;;;;;;;2.89;100.00;99463.95;1752868;82;21102;-64
2021/12/17 05:57:04;;;;;;;6.90;2.35;;;;;;;2.92;100.00;99468.34;1753215;82;21596;-64
2021/12/17 05:59:35;;;;;;;7.17;2.42;;;;;;;2.91;100.00;99465.34;1752890;82;21067;-64
2021/12/17 06:02:07;;;;;;;5.95;2.40;;;;;;;2.92;100.00;99467.00;1753253;82;21051;-63
2021/12/17 06:04:31;;;;;;;5.72;2.62;;;;;;;2.94;100.00;99460.86;1752553;82;21074;-64
2021/12/17 06:06:59;;;;;;;6.87;2.60;;;;;;;2.94;100.00;99470.81;1752909;81;21047;-63
2021/12/17 06:09:28;;;;;;;7.53;2.50;;;;;;;2.90;100.00;99474.48;1724163;82;20991;-63
2021/12/17 06:11:55;;;;;;;8.25;2.40;;;;;;;2.93;100.00;99469.17;1752954;82;22008;-64
2021/12/17 06:14:22;;;;;;;6.80;2.05;;;;;;;2.97;100.00;99474.39;1753053;82;21050;-64
2021/12/17 06:16:48;;;;;;;6.67;2.37;;;;;;;2.98;100.00;99476.83;1752924;82;21592;-64
2021/12/17 06:19:19;;;;;;;5.70;2.40;;;;;;;2.96;100.00;99474.08;1751382;82;21094;-63
2021/12/17 06:21:49;;;;;;;7.80;2.65;;;;;;;2.96;100.00;99483.49;1753059;82;21071;-64
2021/12/17 06:24:15;;;;;;;6.12;2.20;;;;;;;3.00;100.00;99480.64;1753061;82;21039;-65
2021/12/17 06:26:42;;;;;;;6.35;2.40;;;;;;;3.04;100.00;99479.14;1752898;82;21075;-64
2021/12/17 06:29:09;;;;;;;8.98;3.05;;;;;;;3.05;100.00;99480.77;1753358;82;21502;-64
2021/12/17 06:31:35;;;;;;;;;;;;;;;3.01;100.00;99470.20;1755605;82;21093;-65
2021/12/17 06:34:02;;;;;;;6.53;2.12;;;;;;;3.01;100.00;99476.37;1753129;81;20692;-65
2021/12/17 06:36:29;;;;;;;7.80;2.27;;;;;;;3.05;100.00;99475.38;1753045;82;21040;-63
2021/12/17 06:38:57;;;;;;;5.35;2.35;;;;;;;3.09;100.00;99473.88;1752945;82;21059;-63
2021/12/17 06:41:24;;;;;;;8.93;2.50;;;;;;;3.11;100.00;99476.35;1753095;82;21655;-63
2021/12/17 06:43:50;;;;;;;;;;;;;;;3.07;100.00;99474.64;1755694;81;21082;-63
2021/12/17 06:46:23;;;;;;;6.00;1.92;;;;;;;3.04;100.00;99474.29;1753107;81;20378;-63
2021/12/17 06:48:48;;;;;;;4.22;1.75;;;;;;;3.01;100.00;99474.23;1752718;82;21569;-62
2021/12/17 06:57:54;;;;;;;3.52;0.90;;;;;;;2.95;100.00;99472.44;1754007;82;21094;-62
2021/12/17 07:00:12;;;;;;;3.27;0.60;;;;;;;2.93;100.00;99474.55;1753588;82;21078;-65
2021/12/17 07:06:09;;;;;;;3.65;0.90;;;;;;;2.77;100.00;99480.02;1748784;82;21010;-65
2021/12/17 07:10:42;;;;;;;1.70;0.70;;;;;;;2.75;100.00;99480.78;1753247;82;21054;-65
2021/12/17 07:33:58;;;;;;;3.08;1.27;;;;;;;2.72;100.00;99480.42;1727842;83;21023;-64
2021/12/17 07:36:55;;;;;;;3.37;1.07;;;;;;;2.68;100.00;99479.23;1727102;83;21550;-62
2021/12/17 07:39:07;;;;;;;2.95;1.25;;;;;;;2.73;100.00;99484.76;1723352;83;21138;-64
2021/12/17 07:41:52;;;;;;;2.50;1.05;;;;;;;2.76;100.00;99481.09;1727818;83;21106;-64
2021/12/17 07:44:37;;;;;;;4.00;1.20;;;;;;;2.81;100.00;99483.08;1727612;83;21569;-64
2021/12/17 07:47:20;;;;;;;3.05;1.15;;;;;;;2.80;100.00;99486.28;1727512;83;21090;-64
2021/12/17 07:49:55;;;;;;;2.92;1.30;;;;;;;2.82;100.00;99480.17;1722839;83;21146;-64
2021/12/17 07:52:21;;;;;;;;;;;;;;;2.84;100.00;99479.92;1730203;83;21652;-64
2021/12/17 07:54:49;;;;;;;3.40;1.30;;;;;;;2.80;100.00;99478.22;1728053;83;20120;-64
2021/12/17 07:57:15;;;;;;;;;;;;;;;2.77;100.00;99478.68;1730334;83;21082;-64
2021/12/17 07:59:42;;;;;;;6.40;1.50;;;;;;;2.84;100.00;99483.96;1727895;83;20108;-63
2021/12/17 08:02:09;;;;;;;3.85;1.25;;;;;;;2.82;100.00;99480.70;1727715;83;21082;-64
2021/12/17 08:04:37;;;;;;;4.47;1.22;;;;;;;2.79;100.00;99476.60;1727475;83;21429;-64
2021/12/17 08:07:06;;;;;;;3.60;1.40;;;;;;;2.81;100.00;99478.52;1726923;83;21043;-64
2021/12/17 08:09:35;;;;;;;5.12;1.60;;;;;;;2.85;100.00;99478.89;1727748;83;21070;-64
2021/12/17 08:12:05;;;;;;;5.40;1.92;;;;;;;2.92;100.00;99488.51;1727656;83;21074;-63
2021/12/17 08:14:43;;;;;;;5.85;1.50;;;;;;;2.90;100.00;99477.70;1727186;83;21086;-64
2021/12/17 08:25:08;;;;;;;6.78;1.82;;;;;;;3.01;100.00;99477.71;1718535;83;21039;-63
2021/12/17 08:27:43;;;;;;;6.95;1.85;;;;;;;3.06;100.00;99467.63;1746825;82;21090;-64
2021/12/17 08:32:45;;;;;;;5.90;1.77;;;;;;;3.14;100.00;99471.34;1712214;83;21115;-64
2021/12/17 08:35:13;;;;;;;5.22;1.98;;;;;;;3.12;100.00;99473.97;1748044;82;21498;-64
2021/12/17 08:37:40;;;;;;;5.72;1.95;;;;;;;3.17;100.00;99477.59;1747456;82;21074;-64
2021/12/17 08:40:07;;;;;;;5.40;1.47;;;;;;;3.22;100.00;99472.88;1747781;82;21071;-63
2021/12/17 08:42:36;;;;;;;5.97;1.80;;;;;;;3.24;100.00;99470.24;1711734;83;21609;-64
2021/12/17 08:45:07;;;;;;;4.90;1.65;;;;;;;3.25;100.00;99475.93;1747665;82;21062;-64
2021/12/17 08:47:49;;;;;;;5.10;1.90;;;;;;;3.29;100.00;99467.70;1747450;82;21090;-64
2021/12/17 08:50:19;;;;;;;6.08;1.62;;;;;;;3.38;100.00;99464.95;1746215;82;21023;-64
2021/12/17 08:52:46;;;;;;;5.53;1.50;;;;;;;3.40;100.00;99466.08;1747711;82;21620;-63
2021/12/17 08:55:14;;;;;;;5.12;1.70;;;;;;;3.33;100.00;99462.12;1747466;82;21040;-63
2021/12/17 08:57:42;;;;;;;3.83;1.30;;;;;;;3.40;100.00;99461.48;1747630;81;21102;-63
2021/12/17 09:00:11;;;;;;;4.15;1.67;;;;;;;3.45;100.00;99467.01;1747606;82;21070;-64
2021/12/17 09:02:41;;;;;;;4.95;1.10;;;;;;;3.44;100.00;99466.70;1744463;82;21067;-64
2021/12/17 09:05:10;;;;;;;3.12;1.12;;;;;;;3.48;100.00;99461.16;1711887;83;21079;-64
2021/12/17 09:07:38;;;;;;;3.45;1.02;;;;;;;3.52;100.00;99460.16;1711468;83;21059;-64
2021/12/17 09:10:09;;;;;;;2.60;1.22;;;;;;;3.51;100.00;99449.92;1744178;82;21050;-64
2021/12/17 09:12:39;;;;;;;3.22;0.72;;;;;;;3.58;100.00;99457.88;1748074;82;21082;-64
2021/12/17 09:15:07;;;;;;;3.90;1.20;;;;;;;3.61;100.00;99456.61;1715447;83;21099;-64
2021/12/17 09:17:41;;;;;;;4.05;1.07;;;;;;;3.53;100.00;99459.64;1726660;82;21047;-63
2021/12/17 09:20:09;;;;;;;4.22;0.93;;;;;;;3.48;100.00;99466.53;1747643;82;21553;-64
2021/12/17 09:22:35;;;;;;;3.65;1.07;;;;;;;3.48;100.00;99454.42;1751506;81;21102;-64
2021/12/17 09:25:05;;;;;;;4.65;1.40;;;;;;;3.47;100.00;99449.30;1711799;83;21546;-64
2021/12/17 09:27:35;;;;;;;4.60;1.20;;;;;;;3.42;100.00;99457.23;1708646;84;21055;-64
2021/12/17 09:30:13;;;;;;;4.80;1.30;;;;;;;3.39;100.00;99451.80;1690242;84;21055;-64
2021/12/17 09:32:41;;;;;;;3.92;1.17;;;;;;;3.41;100.00;99449.68;1747686;82;21023;-64
2021/12/17 09:35:08;;;;;;;;;;;;;;;3.41;100.00;99452.37;1750140;82;21050;-64
2021/12/17 09:37:34;;;;;;;3.87;1.57;;;;;;;3.36;100.00;99440.16;1747856;82;20107;-64
2021/12/17 09:40:01;;;;;;;5.67;1.50;;;;;;;3.34;100.00;99446.28;1747579;82;21042;-64
2021/12/17 09:42:28;;;;;;;8.73;2.15;;;;;;;3.38;100.00;99443.94;1747951;82;21561;-64
2021/12/17 09:44:56;;;;;;;5.42;1.52;;;;;;;3.44;100.00;99442.48;1747427;82;21911;-64
2021/12/17 09:47:22;;;;;;;8.05;2.05;;;;;;;3.40;100.00;99444.00;1747690;82;21063;-63
2021/12/17 09:49:55;;;;;;;;;;;;;;;3.40;100.00;99442.66;1750058;82;21082;-63
2021/12/17 09:52:21;;;;;;;4.10;1.40;;;;;;;3.45;100.00;99443.31;1747919;82;20107;-63
2021/12/17 09:54:47;;;;;;;5.25;1.45;;;;;;;3.40;100.00;99439.17;1747700;82;21052;-64
2021/12/17 09:57:14;;;;;;;4.30;1.20;;;;;;;3.36;100.00;99433.95;1747848;82;21075;-65
2021/12/17 09:59:42;;;;;;;6.70;1.57;;;;;;;3.35;100.00;99430.96;1747364;82;21043;-64
2021/12/17 10:02:08;;;;;;;5.17;1.70;;;;;;;3.37;100.00;99447.16;1747886;82;21047;-64
2021/12/17 10:04:35;;;;;;;;;;;;;;;3.38;100.00;99435.35;1749937;82;21055;-64
2021/12/17 10:07:21;;;;;;;5.78;1.62;;;;;;;3.34;100.00;99427.45;1747638;82;20135;-64
2021/12/17 10:09:53;;;;;;;5.33;1.25;;;;;;;3.31;100.00;99435.98;1727386;82;21914;-64
2021/12/17 10:12:35;;;;;;;5.92;1.25;;;;;;;3.35;100.00;99430.96;1738207;82;21115;-64
2021/12/17 10:15:12;;;;;;;5.95;1.62;;;;;;;3.37;100.00;99433.70;1743904;82;21442;-64
2021/12/17 10:18:01;;;;;;;5.40;1.57;;;;;;;3.40;100.00;99425.72;1744189;81;21027;-64
2021/12/17 10:20:32;;;;;;;5.10;1.25;;;;;;;3.42;100.00;99424.94;1740432;82;21007;-64
2021/12/17 10:23:08;;;;;;;4.78;1.57;;;;;;;3.42;100.00;99418.21;1717023;82;21079;-63
2021/12/17 10:25:40;;;;;;;3.72;1.25;;;;;;;3.44;100.00;99422.83;1716568;83;21095;-64
2021/12/17 10:28:06;;;;;;;4.08;1.42;;;;;;;3.48;100.00;99411.37;1717114;82;21012;-64
2021/12/17 10:30:38;;;;;;;3.65;1.20;;;;;;;3.54;100.00;99408.28;1716640;83;21063;-63
2021/12/17 10:33:08;;;;;;;3.35;1.12;;;;;;;3.55;100.00;99407.21;1716684;82;21071;-65
2021/12/17 10:35:44;;;;;;;3.60;1.12;;;;;;;3.46;100.00;99406.76;1716799;83;21423;-64
2021/12/17 10:38:10;;;;;;;3.22;1.20;;;;;;;3.45;100.00;99404.29;1716897;82;21040;-62
2021/12/17 10:40:48;;;;;;;4.42;1.25;;;;;;;3.46;100.00;99408.11;1716715;83;21016;-64
2021/12/17 10:43:31;;;;;;;4.15;1.12;;;;;;;3.40;100.00;99407.67;1722148;82;21020;-64
2021/12/17 10:46:03;;;;;;;4.85;1.42;;;;;;;3.35;100.00;99401.36;1726815;82;21051;-64
2021/12/17 10:51:18;;;;;;;4.15;1.22;;;;;;;3.40;100.00;99410.36;1739230;82;21043;-65
2021/12/17 10:53:54;;;;;;;3.70;1.05;;;;;;;3.34;100.00;99404.58;1729260;82;21045;-64
2021/12/17 10:56:23;;;;;;;2.95;1.02;;;;;;;3.27;100.00;99404.39;1740859;82;21551;-64
2021/12/17 10:59:08;;;;;;;3.15;1.00;;;;;;;3.28;100.00;99408.20;1730820;82;21015;-64
2021/12/17 11:01:52;;;;;;;4.00;1.30;;;;;;;3.30;100.00;99401.23;1742555;82;21581;-64
2021/12/17 11:04:23;;;;;;;2.55;1.00;;;;;;;3.27;100.00;99403.87;1734377;82;21063;-65
2021/12/17 11:06:59;;;;;;;2.45;1.02;;;;;;;3.31;100.00;99404.22;1741323;82;21083;-64
2021/12/17 11:09:36;;;;;;;3.17;1.10;;;;;;;3.33;100.00;99401.58;1741574;82;21011;-64
2021/12/17 11:12:41;;;;;;;3.77;1.17;;;;;;;3.33;100.00;99410.20;1729608;82;21139;-64
2021/12/17 11:15:13;;;;;;;3.98;1.20;;;;;;;3.36;100.00;99406.52;1741600;82;21550;-64
2021/12/17 11:17:41;;;;;;;3.83;1.50;;;;;;;3.44;100.00;99399.95;1741219;82;21139;-64
2021/12/17 11:20:16;;;;;;;3.92;1.27;;;;;;;3.46;100.00;99400.03;1741822;82;21036;-64
2021/12/17 11:22:44;;;;;;;3.27;1.20;;;;;;;3.43;100.00;99392.43;1741231;82;21028;-64
2021/12/17 11:25:12;;;;;;;4.53;1.35;;;;;;;3.45;100.00;99397.04;1741458;82;21563;-64
2021/12/17 11:27:38;;;;;;;4.03;1.07;;;;;;;3.49;100.00;99387.45;1741473;82;21083;-64
2021/12/17 11:30:08;;;;;;;3.70;1.20;;;;;;;3.51;100.00;99389.89;1741879;82;21546;-65
2021/12/17 11:32:35;;;;;;;3.75;1.40;;;;;;;3.49;100.00;99377.20;1734073;82;21063;-65
2021/12/17 11:35:03;;;;;;;3.12;1.15;;;;;;;3.51;100.00;99385.33;1725716;82;21063;-64
2021/12/17 11:37:30;;;;;;;4.08;1.00;;;;;;;3.57;100.00;99382.24;1716973;82;21060;-64
2021/12/17 11:40:02;;;;;;;4.65;1.12;;;;;;;3.53;100.00;99381.59;1731282;82;21090;-64
2021/12/17 11:43:29;;;;;;;3.05;1.10;;;;;;;3.54;100.00;99388.10;1736803;82;21590;-63
2021/12/17 11:46:05;;;;;;;3.45;1.22;;;;;;;3.57;100.00;99385.45;1725719;82;21055;-64
2021/12/17 11:48:33;;;;;;;2.95;0.93;;;;;;;3.53;100.00;99389.14;1731936;82;21503;-65
2021/12/17 11:51:15;;;;;;;2.55;0.93;;;;;;;3.49;100.00;99388.80;1731288;82;21055;-64
2021/12/17 11:53:56;;;;;;;2.98;0.95;;;;;;;3.51;100.00;99390.72;1741570;82;21550;-65
2021/12/17 11:56:45;;;;;;;3.67;1.10;;;;;;;3.56;100.00;99387.84;1713831;82;21063;-64
2021/12/17 11:59:32;;;;;;;2.17;0.88;;;;;;;3.49;100.00;99383.94;1730867;82;21080;-64
2021/12/17 12:02:24;;;;;;;3.87;0.90;;;;;;;3.47;100.00;99384.71;1741372;82;21051;-65
2021/12/17 12:05:02;;;;;;;5.35;1.20;;;;;;;3.53;100.00;99392.36;1741465;82;21130;-64
2021/12/17 12:07:33;;;;;;;4.67;1.17;;;;;;;3.46;100.00;99387.92;1741693;82;21043;-65
2021/12/17 12:10:12;;;;;;;3.62;0.98;;;;;;;3.44;100.00;99391.87;1741442;82;21027;-65
2021/12/17 12:12:50;;;;;;;4.37;1.20;;;;;;;3.46;100.00;99393.83;1740213;82;21055;-64
2021/12/17 12:15:23;;;;;;;2.60;0.88;;;;;;;3.46;100.00;99390.61;1730796;82;21860;-64
2021/12/17 12:18:07;;;;;;;3.92;1.20;;;;;;;3.41;100.00;99387.79;1730676;82;21051;-64
2021/12/17 12:20:52;;;;;;;2.80;0.90;;;;;;;3.40;100.00;99394.22;1745501;82;21079;-64
2021/12/17 12:23:29;;;;;;;4.95;1.15;;;;;;;3.44;100.00;99391.87;1747837;82;21489;-64
2021/12/17 12:26:15;;;;;;;3.50;1.35;;;;;;;3.43;100.00;99389.74;1745026;82;21104;-65
2021/12/17 12:28:58;;;;;;;4.62;1.32;;;;;;;3.38;100.00;99388.27;1740265;82;21012;-64
2021/12/17 12:31:37;;;;;;;3.65;0.98;;;;;;;3.41;100.00;99391.83;1736042;82;21582;-64
2021/12/17 12:34:13;;;;;;;3.02;0.80;;;;;;;3.45;100.00;99398.39;1745113;82;21448;-65
2021/12/17 12:36:52;;;;;;;5.22;1.10;;;;;;;3.43;100.00;99399.68;1738373;82;21052;-65
2021/12/17 12:39:30;;;;;;;4.20;1.10;;;;;;;3.37;100.00;99393.86;1741432;82;21067;-66
2021/12/17 12:42:21;;;;;;;2.17;1.02;;;;;;;3.39;100.00;99399.84;1741578;82;21150;-65
2021/12/17 12:44:53;;;;;;;4.55;1.00;;;;;;;3.41;100.00;99395.86;1746123;82;20995;-64
2021/12/17 12:47:37;;;;;;;3.22;0.85;;;;;;;3.39;100.00;99397.98;1747700;81;21071;-63
2021/12/17 12:50:14;;;;;;;3.05;1.10;;;;;;;3.33;100.00;99403.48;1747537;82;21069;-63
2021/12/17 12:52:55;;;;;;;1.72;0.62;;;;;;;3.28;100.00;99409.55;1744617;82;21625;-64
2021/12/17 12:55:33;;;;;;;2.33;0.88;;;;;;;3.31;100.00;99413.64;1740497;82;21892;-64
2021/12/17 12:58:13;;;;;;;3.67;0.90;;;;;;;3.33;100.00;99418.28;1743685;82;21044;-64
2021/12/17 13:00:50;;;;;;;4.17;1.40;;;;;;;3.30;100.00;99412.81;1737409;82;21036;-63
2021/12/17 13:03:18;;;;;;;;;;;;;;;3.28;100.00;99419.48;1749172;82;21115;-63
2021/12/17 13:05:47;;;;;;;;;;;;;;;3.30;100.00;99430.30;1750272;82;20476;-66
2021/12/17 13:08:17;;;;;;;5.40;1.60;;;;;;;3.28;100.00;99424.34;1747472;81;20170;-64
2021/12/17 13:10:50;;;;;;;3.52;1.37;;;;;;;3.19;100.00;99427.06;1747569;82;21969;-65
2021/12/17 13:16:13;;;;;;;5.20;1.60;;;;;;;3.11;100.00;99423.39;1746183;82;21110;-65
2021/12/17 13:24:14;;;;;;;3.45;1.45;;;;;;;3.05;100.00;99435.59;1716971;82;21570;-65
2021/12/17 13:26:47;;;;;;;2.20;0.88;;;;;;;3.04;100.00;99433.42;1716674;82;21704;-65
2021/12/17 13:29:20;;;;;;;1.72;0.80;;;;;;;3.05;100.00;99443.11;1728383;82;21024;-65
2021/12/17 13:32:02;;;;;;;2.65;0.82;;;;;;;2.93;100.00;99446.31;1737284;82;21063;-64
2021/12/17 13:34:34;;;;;;;1.47;0.50;;;;;;;2.72;100.00;99445.48;1715819;83;21063;-64
2021/12/17 13:37:20;;;;;;;2.75;0.80;;;;;;;2.59;100.00;99438.40;1716951;82;21060;-63
2021/12/17 13:39:59;;;;;;;2.15;1.00;;;;;;;2.47;100.00;99433.52;1735857;82;20993;-64
2021/12/17 13:42:28;;;;;;;3.90;1.72;;;;;;;2.33;100.00;99437.41;1730953;82;21122;-64
2021/12/17 13:45:07;;;;;;;3.37;1.57;;;;;;;2.29;100.00;99437.56;1726593;82;20976;-64
2021/12/17 13:47:41;;;;;;;5.40;3.77;;;;;;;2.28;100.00;99436.73;1717069;82;21103;-65
2021/12/17 13:50:30;;;;;;;8.30;5.30;;;;;;;2.23;100.00;99436.58;1716909;83;21063;-64
2021/12/17 13:53:05;;;;;;;6.08;3.20;;;;;;;2.16;100.00;99436.39;1717002;82;21099;-64
2021/12/17 13:55:44;;;;;;;5.07;2.20;;;;;;;2.16;100.00;99442.55;1707474;83;21082;-64
2021/12/17 13:58:14;;;;;;;5.28;2.67;;;;;;;2.22;100.00;99442.20;1716229;82;21052;-64
2021/12/17 14:00:44;;;;;;;5.00;2.92;;;;;;;2.22;100.00;99449.73;1716846;83;21086;-64
2021/12/17 14:03:16;;;;;;;6.40;3.40;;;;;;;2.22;100.00;99451.59;1716945;82;21115;-65
2021/12/17 14:05:48;;;;;;;8.53;3.98;;;;;;;2.17;100.00;99454.95;1717030;83;21523;-64
2021/12/17 14:08:17;;;;;;;7.40;3.80;;;;;;;2.16;100.00;99449.27;1717028;82;21130;-64
2021/12/17 14:10:43;;;;;;;6.15;3.45;;;;;;;2.21;100.00;99447.27;1717001;83;21051;-64
2021/12/17 14:13:24;;;;;;;14.13;7.87;;;;;;;2.26;100.00;99456.82;1717106;82;21586;-64
2021/12/17 14:15:53;;;;;;;39.90;27.13;;;;;;;2.24;100.00;99449.49;1716570;83;21056;-64
2021/12/17 14:18:22;;;;;;;21.37;12.70;;;;;;;2.21;100.00;99454.80;1716895;82;21024;-64
2021/12/17 14:20:55;;;;;;;31.37;18.40;;;;;;;2.24;100.00;99453.52;1716839;83;21055;-63
2021/12/17 14:23:25;;;;;;;27.20;16.73;;;;;;;2.27;100.00;99457.92;1716972;82;20996;-64
2021/12/17 14:25:54;;;;;;;16.27;9.60;;;;;;;2.26;100.00;99462.19;1718365;82;21110;-64
2021/12/17 14:28:30;;;;;;;6.40;3.70;;;;;;;2.21;100.00;99464.20;1723296;83;20960;-64
2021/12/17 14:31:13;;;;;;;4.92;2.80;;;;;;;2.22;100.00;99471.73;1723092;82;21015;-64
2021/12/17 14:33:44;;;;;;;8.15;4.58;;;;;;;2.26;100.00;99459.50;1723157;83;21000;-64
2021/12/17 14:36:14;;;;;;;78.35;35.60;;;;;;;2.22;100.00;99465.02;1723163;82;21558;-64
2021/12/17 14:38:59;;;;;;;44.83;20.37;;;;;;;2.18;100.00;99470.54;1748121;82;21507;-64
2021/12/17 14:41:53;;;;;;;156.05;52.00;;;;;;;2.16;100.00;99462.69;1746242;82;21071;-64
2021/12/17 14:44:01;;;;;;;22.75;11.10;;;;;;;2.19;100.00;99467.64;1733132;82;21091;-64
2021/12/17 14:46:30;;;;;;;13.65;10.03;;;;;;;2.18;100.00;99467.34;1734844;82;21048;-64
2021/12/17 14:49:29;;;;;;;29.85;21.40;;;;;;;2.14;100.00;99466.14;1722974;83;21059;-65